Time;durP1;ratioP1;P1;durP2;ratioP2;P2;SDS_P1;SDS_P2;PMS_P1;PMS_P2;Temp;Humidity;BMP_temperature;BMP_pressure;BME280_temperature;BME280_humidity;BME280_pressure;Samples;Min_cycle;Max_cycle;Signal;HPM_P1;HPM_P2
2021/08/19 00:02:07;;;;;;;;;;;;;;;16.69;90.99;101299.84;5092976;28;19928;-59
2021/08/19 00:04:33;;;;;;;;;;;;;;;16.68;91.21;101295.50;5074992;28;19973;-59
2021/08/19 00:07:00;;;;;;;;;;;;;;;16.72;90.93;101296.91;5092899;28;19924;-59
2021/08/19 00:09:26;;;;;;;;;;;;;;;16.69;91.04;101289.22;5092860;28;19924;-58
2021/08/19 00:11:53;;;;;;;;;;;;;;;16.62;91.69;101281.88;5092862;28;19923;-58
2021/08/19 00:14:20;;;;;;;;;;;;;;;16.62;91.45;101290.72;5092879;28;20402;-58
2021/08/19 00:16:46;;;;;;;;;;;;;;;16.64;91.65;101290.56;5073502;28;19989;-59
2021/08/19 00:19:13;;;;;;;;;;;;;;;16.62;91.64;101282.75;5090359;28;19950;-48
2021/08/19 00:21:39;;;;;;;;;;;;;;;16.60;91.62;101283.84;5077873;28;20283;-49
2021/08/19 00:24:06;;;;;;;;;;;;;;;16.55;91.72;101281.56;5076216;28;19982;-49
2021/08/19 00:26:34;;;;;;;;;;;;;;;16.54;91.69;101279.88;5094247;28;20414;-51
2021/08/19 00:29:00;;;;;;;;;;;;;;;16.52;91.58;101276.50;5096644;28;20341;-48
2021/08/19 00:31:27;;;;;;;;;;;;;;;16.52;91.26;101279.16;5095594;28;19932;-46
2021/08/19 00:33:54;;;;;;;;;;;;;;;16.50;91.69;101273.97;5093760;28;20282;-47
2021/08/19 00:36:20;;;;;;;;;;;;;;;16.52;91.62;101276.50;5095683;28;20048;-46
2021/08/19 00:38:47;;;;;;;;;;;;;;;16.50;92.12;101275.81;5096527;28;19969;-45
2021/08/19 00:41:16;;;;;;;;;;;;;;;16.51;91.89;101269.50;5096458;28;19935;-44
2021/08/19 00:43:43;;;;;;;;;;;;;;;16.53;92.27;101272.88;5095583;28;19947;-46
2021/08/19 00:46:30;;;;;;;;;;;;;;;16.51;92.20;101270.38;5093769;28;19924;-48
2021/08/19 00:49:01;;;;;;;;;;;;;;;16.53;91.87;101272.88;5094974;28;20208;-46
2021/08/19 00:51:31;;;;;;;;;;;;;;;16.52;91.72;101273.84;5094202;28;19928;-47
2021/08/19 00:53:58;;;;;;;;;;;;;;;16.52;91.50;101276.50;5093791;28;19931;-50
2021/08/19 00:56:25;;;;;;;;;;;;;;;16.50;91.68;101271.34;5095645;28;20018;-49
2021/08/19 00:58:51;;;;;;;;;;;;;;;16.52;91.34;101276.50;5092151;28;20460;-47
2021/08/19 01:01:18;;;;;;;;;;;;;;;16.52;91.57;101266.75;5094795;28;19928;-59
2021/08/19 01:03:45;;;;;;;;;;;;;;;16.53;91.68;101264.94;5076342;28;19985;-59
2021/08/19 01:06:12;;;;;;;;;;;;;;;16.54;91.91;101266.63;5075602;28;19932;-59
2021/08/19 01:08:38;;;;;;;;;;;;;;;16.55;91.84;101268.28;5095971;28;19924;-59
2021/08/19 01:11:05;;;;;;;;;;;;;;;16.54;91.65;101263.97;5095953;28;20395;-59
2021/08/19 01:13:34;;;;;;;;;;;;;;;16.54;91.72;101270.09;5096118;28;20379;-59
2021/08/19 01:16:02;;;;;;;;;;;;;;;16.54;91.66;101269.28;5096297;28;20401;-59
2021/08/19 01:18:58;;;;;;;;;;;;;;;16.53;91.88;101267.59;5078148;28;20317;-59
2021/08/19 01:21:25;;;;;;;;;;;;;;;16.53;91.99;101267.59;5075003;28;19928;-45
2021/08/19 01:23:52;;;;;;;;;;;;;;;16.58;92.20;101264.53;5076641;28;20459;-46
2021/08/19 01:26:19;;;;;;;;;;;;;;;16.57;92.23;101269.00;5093299;28;19924;-44
2021/08/19 01:28:46;;;;;;;;;;;;;;;16.60;92.02;101268.75;5094790;28;19924;-46
2021/08/19 01:31:15;;;;;;;;;;;;;;;16.61;92.33;101272.25;5094620;28;19928;-49
2021/08/19 01:33:42;;;;;;;;;;;;;;;16.60;92.10;101273.22;5077172;28;19924;-48
2021/08/19 01:36:10;;;;;;;;;;;;;;;16.59;92.77;101266.22;5077681;28;19931;-48
2021/08/19 01:38:37;;;;;;;;;;;;;;;16.59;92.58;101266.22;5095438;28;19924;-48
2021/08/19 01:41:04;;;;;;;;;;;;;;;16.58;92.74;101269.84;5077505;28;19928;-48
2021/08/19 01:43:31;;;;;;;;;;;;;;;16.58;92.76;101259.22;5095480;28;19924;-47
2021/08/19 01:45:58;;;;;;;;;;;;;;;16.64;92.59;101264.03;5095373;28;19924;-49
2021/08/19 01:48:25;;;;;;;;;;;;;;;16.63;92.86;101263.16;5095685;28;19960;-48
2021/08/19 01:50:51;;;;;;;;;;;;;;;16.61;92.99;101256.31;5095371;28;19924;-48
2021/08/19 01:53:18;;;;;;;;;;;;;;;16.59;92.93;101259.09;5095304;28;20631;-46
2021/08/19 01:55:45;;;;;;;;;;;;;;;16.59;92.86;101255.59;5095235;28;19924;-50
2021/08/19 01:58:12;;;;;;;;;;;;;;;16.61;93.03;101259.81;5077386;28;20402;-50
2021/08/19 02:00:38;;;;;;;;;;;;;;;16.62;93.04;101258.84;5077200;28;19978;-51
2021/08/19 02:03:05;;;;;;;;;;;;;;;16.62;93.30;101256.19;5095212;28;19931;-48
2021/08/19 02:05:32;;;;;;;;;;;;;;;16.60;93.28;101246.66;5094970;28;19925;-47
2021/08/19 02:07:59;;;;;;;;;;;;;;;16.64;92.95;101256.88;5092879;28;19928;-49
2021/08/19 02:10:25;;;;;;;;;;;;;;;16.64;92.93;101259.53;5092000;28;19925;-50
2021/08/19 02:12:52;;;;;;;;;;;;;;;16.63;92.87;101252.53;5093586;28;19924;-50
2021/08/19 02:15:19;;;;;;;;;;;;;;;16.65;92.94;101253.28;5092082;28;19928;-47
2021/08/19 02:17:46;;;;;;;;;;;;;;;16.67;93.43;101253.97;5092001;28;20341;-46
2021/08/19 02:20:12;;;;;;;;;;;;;;;16.68;93.39;101245.03;5095024;28;19924;-46
2021/08/19 02:22:39;;;;;;;;;;;;;;;16.64;93.85;101248.94;5094682;28;19970;-47
2021/08/19 02:25:06;;;;;;;;;;;;;;;16.62;94.33;101242.91;5094747;28;20416;-47
2021/08/19 02:27:32;;;;;;;;;;;;;;;16.64;94.50;101248.09;5094423;28;19924;-45
2021/08/19 02:29:59;;;;;;;;;;;;;;;16.65;94.25;101249.78;5077030;28;19924;-47
2021/08/19 02:32:26;;;;;;;;;;;;;;;16.67;94.60;101238.03;5076910;28;19977;-48
2021/08/19 02:34:57;;;;;;;;;;;;;;;16.68;94.69;101244.22;5094777;28;19951;-46
2021/08/19 02:37:24;;;;;;;;;;;;;;;16.70;94.60;101239.59;5094395;28;19935;-47
2021/08/19 02:39:50;;;;;;;;;;;;;;;16.71;94.71;101239.50;5094149;28;20271;-46
2021/08/19 02:42:17;;;;;;;;;;;;;;;16.72;95.83;101235.00;5091284;28;19928;-44
2021/08/19 02:44:44;;;;;;;;;;;;;;;16.73;95.41;101232.22;5090445;28;19928;-46
2021/08/19 02:47:10;;;;;;;;;;;;;;;16.76;95.63;101230.28;5093994;28;19927;-45
2021/08/19 02:49:37;;;;;;;;;;;;;;;16.70;96.94;101227.19;5093864;28;19924;-45
2021/08/19 02:52:04;;;;;;;;;;;;;;;16.71;97.35;101233.31;5093779;28;19985;-45
2021/08/19 02:54:30;;;;;;;;;;;;;;;16.75;96.61;101225.94;5093851;28;19931;-44
2021/08/19 02:56:57;;;;;;;;;;;;;;;16.80;96.30;101229.06;5093691;28;19971;-46
2021/08/19 02:59:23;;;;;;;;;;;;;;;16.80;96.66;101221.09;5075193;28;19928;-50
2021/08/19 03:01:50;;;;;;;;;;;;;;;16.78;96.16;101221.19;5056694;28;19928;-49
2021/08/19 03:04:17;;;;;;;;;;;;;;;16.84;96.03;101219.84;5074481;28;19925;-48
2021/08/19 03:06:44;;;;;;;;;;;;;;;16.83;96.25;101226.13;5091871;28;19967;-47
2021/08/19 03:09:10;;;;;;;;;;;;;;;16.73;96.73;101218.94;5072683;28;19973;-47
2021/08/19 03:11:37;;;;;;;;;;;;;;;16.77;96.68;101218.66;5093284;28;19928;-46
2021/08/19 03:14:03;;;;;;;;;;;;;;;16.77;96.52;101216.00;5093697;28;19954;-49
2021/08/19 03:16:30;;;;;;;;;;;;;;;16.79;96.24;101214.09;5093989;28;19963;-58
2021/08/19 03:18:57;;;;;;;;;;;;;;;16.83;96.33;101220.81;5093724;28;19931;-59
2021/08/19 03:21:23;;;;;;;;;;;;;;;16.84;96.26;101218.03;5073980;28;20432;-59
2021/08/19 03:23:50;;;;;;;;;;;;;;;16.84;96.35;101217.19;5089725;28;20018;-58
2021/08/19 03:26:17;;;;;;;;;;;;;;;16.85;96.20;101217.06;5093532;28;19928;-58
2021/08/19 03:28:43;;;;;;;;;;;;;;;16.89;96.05;101215.00;5093228;28;20432;-59
2021/08/19 03:31:10;;;;;;;;;;;;;;;16.85;95.96;101219.72;5058840;28;19924;-58
2021/08/19 03:33:37;;;;;;;;;;;;;;;16.83;96.17;101218.16;5058712;28;19925;-58
2021/08/19 03:36:05;;;;;;;;;;;;;;;16.85;95.95;101218.84;5073044;28;19950;-58
2021/08/19 03:38:42;;;;;;;;;;;;;;;16.87;95.69;101219.56;5090149;28;19924;-58
2021/08/19 03:41:09;;;;;;;;;;;;;;;16.85;95.75;101219.72;5093145;28;19989;-58
2021/08/19 03:43:36;;;;;;;;;;;;;;;16.84;95.68;101211.88;5093173;28;19979;-58
2021/08/19 03:46:03;;;;;;;;;;;;;;;16.89;95.27;101209.69;5093332;28;20271;-58
2021/08/19 03:48:30;;;;;;;;;;;;;;;16.89;94.81;101210.53;5072789;28;20406;-58
2021/08/19 03:50:57;;;;;;;;;;;;;;;16.86;94.65;101212.56;5090274;28;19924;-58
2021/08/19 03:53:24;;;;;;;;;;;;;;;16.81;94.17;101209.47;5058071;28;19928;-49
2021/08/19 03:55:50;;;;;;;;;;;;;;;16.81;93.89;101212.13;5072605;28;20708;-50
2021/08/19 03:58:17;;;;;;;;;;;;;;;16.78;94.16;101215.03;5057065;28;20401;-57
2021/08/19 04:00:48;;;;;;;;;;;;;;;16.75;94.16;101212.66;5075568;28;19970;-58
2021/08/19 04:03:15;;;;;;;;;;;;;;;16.71;93.17;101206.75;5075243;28;19928;-59
2021/08/19 04:05:42;;;;;;;;;;;;;;;16.65;93.11;101207.31;5093081;28;20399;-59
2021/08/19 04:08:08;;;;;;;;;;;;;;;16.69;92.86;101219.34;5091820;28;20407;-49
2021/08/19 04:10:35;;;;;;;;;;;;;;;16.69;92.60;101220.16;5090146;28;19931;-59
2021/08/19 04:13:01;;;;;;;;;;;;;;;16.69;92.01;101224.66;5091158;28;20019;-59
2021/08/19 04:15:28;;;;;;;;;;;;;;;16.69;91.75;101225.47;5093052;28;19969;-59
2021/08/19 04:17:55;;;;;;;;;;;;;;;16.72;92.18;101225.22;5074795;28;19924;-58
2021/08/19 04:20:22;;;;;;;;;;;;;;;16.70;91.74;101226.31;5092750;28;19989;-59
2021/08/19 04:22:48;;;;;;;;;;;;;;;16.67;92.09;101219.44;5092670;28;19959;-58
2021/08/19 04:25:15;;;;;;;;;;;;;;;16.68;91.67;101229.09;5092814;28;19924;-48
2021/08/19 04:27:42;;;;;;;;;;;;;;;16.68;91.72;101233.59;5092581;28;20371;-50
2021/08/19 04:30:09;;;;;;;;;;;;;;;16.69;91.60;101228.13;5093295;28;19931;-49
2021/08/19 04:32:36;;;;;;;;;;;;;;;16.69;91.69;101233.44;5092350;28;20317;-50
2021/08/19 04:35:04;;;;;;;;;;;;;;;16.71;91.71;101233.31;5092804;28;19974;-50
2021/08/19 04:37:30;;;;;;;;;;;;;;;16.69;91.35;101224.66;5058471;28;19947;-47
2021/08/19 04:39:57;;;;;;;;;;;;;;;16.69;91.55;101233.44;5071210;28;20268;-46
2021/08/19 04:42:24;;;;;;;;;;;;;;;16.68;91.79;101234.41;5070771;28;19928;-46
2021/08/19 04:44:51;;;;;;;;;;;;;;;16.68;91.58;101237.06;5067857;28;19925;-45
2021/08/19 04:47:18;;;;;;;;;;;;;;;16.69;91.59;101232.63;5072121;28;19946;-46
2021/08/19 04:49:45;;;;;;;;;;;;;;;16.69;91.61;101229.97;5072329;28;19982;-46
2021/08/19 04:52:11;;;;;;;;;;;;;;;16.68;91.34;101228.28;5072154;28;19924;-49
2021/08/19 04:54:38;;;;;;;;;;;;;;;16.66;91.65;101224.88;5072273;28;19928;-45
2021/08/19 04:57:05;;;;;;;;;;;;;;;16.70;91.66;101221.00;5068951;28;19929;-47
2021/08/19 04:59:31;;;;;;;;;;;;;;;16.70;91.84;101221.00;5066909;28;20195;-48
2021/08/19 05:01:58;;;;;;;;;;;;;;;16.70;91.90;101218.34;5071587;28;19924;-44
2021/08/19 05:04:26;;;;;;;;;;;;;;;16.69;92.36;101220.16;5071511;28;19971;-49
2021/08/19 05:06:52;;;;;;;;;;;;;;;16.69;92.06;101217.53;5072476;28;20007;-51
2021/08/19 05:09:19;;;;;;;;;;;;;;;16.72;92.09;101225.22;5073287;28;20334;-49
2021/08/19 05:11:45;;;;;;;;;;;;;;;16.70;92.29;101216.56;5075816;28;19950;-47
2021/08/19 05:14:12;;;;;;;;;;;;;;;16.71;92.16;101222.69;5075753;28;20398;-46
2021/08/19 05:16:39;;;;;;;;;;;;;;;16.71;92.51;101217.38;5076076;28;19925;-45
2021/08/19 05:19:05;;;;;;;;;;;;;;;16.71;92.55;101225.34;5074634;28;19924;-44
2021/08/19 05:21:32;;;;;;;;;;;;;;;16.73;92.68;101231.38;5075637;28;19924;-47
2021/08/19 05:23:59;;;;;;;;;;;;;;;16.72;92.93;101227.03;5075422;28;19925;-50
2021/08/19 05:26:25;;;;;;;;;;;;;;;16.77;93.00;101232.81;5074265;28;20559;-49
2021/08/19 05:28:52;;;;;;;;;;;;;;;16.75;93.43;101239.22;5075180;28;20302;-50
2021/08/19 05:31:19;;;;;;;;;;;;;;;16.73;93.21;101237.53;5072797;28;20336;-50
2021/08/19 05:33:45;;;;;;;;;;;;;;;16.76;93.57;101239.09;5072597;28;20287;-48
2021/08/19 05:36:13;;;;;;;;;;;;;;;16.78;93.98;101236.28;5075264;28;19924;-47
2021/08/19 05:38:42;;;;;;;;;;;;;;;16.76;94.38;101238.25;5075121;28;19935;-46
2021/08/19 05:41:09;;;;;;;;;;;;;;;16.78;94.17;101246.91;5089446;28;19924;-46
2021/08/19 05:43:36;;;;;;;;;;;;;;;16.79;94.63;101249.44;5095559;28;19925;-46
2021/08/19 05:46:02;;;;;;;;;;;;;;;16.83;94.70;101250.84;5077130;28;19982;-47
2021/08/19 05:48:29;;;;;;;;;;;;;;;16.83;94.60;101247.38;5091845;28;19927;-44
2021/08/19 05:50:56;;;;;;;;;;;;;;;16.84;94.26;101249.91;5093509;28;20432;-47
2021/08/19 05:53:22;;;;;;;;;;;;;;;16.87;94.61;101254.09;5077342;28;19924;-45
2021/08/19 05:55:49;;;;;;;;;;;;;;;16.85;94.73;101254.25;5095008;28;20418;-44
2021/08/19 05:58:16;;;;;;;;;;;;;;;16.87;94.68;101254.94;5094996;28;19931;-43
2021/08/19 06:00:49;;;;;;;;;;;;;;;16.89;94.85;101260.16;5095047;28;20417;-49
2021/08/19 06:03:16;;;;;;;;;;;;;;;16.89;94.81;101255.69;5093399;28;19924;-45
2021/08/19 06:05:43;;;;;;;;;;;;;;;16.93;94.79;101268.69;5092513;28;19928;-46
2021/08/19 06:08:09;;;;;;;;;;;;;;;16.91;95.04;101263.53;5094058;28;19973;-44
2021/08/19 06:10:36;;;;;;;;;;;;;;;16.85;95.29;101261.34;5094779;28;19924;-44
2021/08/19 06:13:03;;;;;;;;;;;;;;;16.86;95.23;101266.53;5094820;28;19923;-44
2021/08/19 06:15:30;;;;;;;;;;;;;;;16.87;95.18;101257.59;5093765;28;19935;-44
2021/08/19 06:17:56;;;;;;;;;;;;;;;16.89;95.20;101263.66;5071713;28;19982;-49
2021/08/19 06:20:23;;;;;;;;;;;;;;;16.94;95.11;101259.78;5092941;28;19977;-49
2021/08/19 06:22:52;;;;;;;;;;;;;;;16.95;94.76;101259.63;5060054;28;19924;-46
2021/08/19 06:25:19;;;;;;;;;;;;;;;16.95;94.93;101261.47;5091998;28;19928;-49
2021/08/19 06:27:46;;;;;;;;;;;;;;;16.94;94.58;101263.25;5092303;28;19928;-45
2021/08/19 06:30:13;;;;;;;;;;;;;;;16.98;94.67;101262.03;5094476;28;19967;-46
2021/08/19 06:32:40;;;;;;;;;;;;;;;16.96;94.61;101257.81;5074267;28;20460;-48
2021/08/19 06:35:07;;;;;;;;;;;;;;;16.97;94.66;101262.97;5091761;28;19961;-58
2021/08/19 06:37:34;;;;;;;;;;;;;;;16.95;94.70;101261.47;5094169;28;20390;-59
2021/08/19 06:40:01;;;;;;;;;;;;;;;16.97;94.64;101260.31;5094202;28;19932;-58
2021/08/19 06:42:30;;;;;;;;;;;;;;;16.99;94.50;101262.88;5092491;28;21647;-58
2021/08/19 06:44:56;;;;;;;;;;;;;;;17.00;94.56;101268.06;5071914;28;19924;-50
2021/08/19 06:47:23;;;;;;;;;;;;;;;16.98;94.44;101270.00;5093051;28;20294;-46
2021/08/19 06:49:50;;;;;;;;;;;;;;;16.99;94.72;101276.16;5076126;28;19924;-46
2021/08/19 06:52:17;;;;;;;;;;;;;;;17.01;94.54;101275.03;5093965;28;19924;-50
2021/08/19 06:54:43;;;;;;;;;;;;;;;16.95;94.62;101266.78;5093749;28;20370;-46
2021/08/19 06:57:10;;;;;;;;;;;;;;;17.02;94.16;101271.41;5090931;28;19931;-47
2021/08/19 06:59:36;;;;;;;;;;;;;;;17.08;93.94;101271.88;5091521;28;19924;-60
2021/08/19 07:02:03;;;;;;;;;;;;;;;17.08;93.96;101275.34;5094046;28;19924;-59
2021/08/19 07:04:30;;;;;;;;;;;;;;;17.09;93.78;101269.06;5093632;28;19935;-44
2021/08/19 07:06:57;;;;;;;;;;;;;;;17.13;93.38;101267.00;5059016;28;19924;-45
2021/08/19 07:09:24;;;;;;;;;;;;;;;17.16;93.50;101272.03;5093115;28;19947;-46
2021/08/19 07:11:50;;;;;;;;;;;;;;;17.17;93.53;101269.25;5090619;28;20386;-49
2021/08/19 07:14:17;;;;;;;;;;;;;;;17.15;93.35;101265.91;5090920;28;20355;-49
2021/08/19 07:16:44;;;;;;;;;;;;;;;17.18;93.09;101267.44;5091390;28;20395;-48
2021/08/19 07:19:11;;;;;;;;;;;;;;;17.18;93.10;101267.44;5089462;28;20402;-45
2021/08/19 07:21:38;;;;;;;;;;;;;;;17.21;92.76;101269.84;5093401;28;19928;-45
2021/08/19 07:24:04;;;;;;;;;;;;;;;17.21;92.83;101268.00;5093431;28;19924;-45
2021/08/19 07:26:31;;;;;;;;;;;;;;;17.20;92.84;101273.47;5093349;28;19939;-49
2021/08/19 07:28:58;;;;;;;;;;;;;;;17.18;93.09;101267.44;5074864;28;20387;-46
2021/08/19 07:31:25;;;;;;;;;;;;;;;17.15;93.11;101275.66;5093270;28;19942;-48
2021/08/19 07:33:51;;;;;;;;;;;;;;;17.14;93.64;101276.63;5092930;28;20011;-48
2021/08/19 07:36:18;;;;;;;;;;;;;;;17.15;93.53;101271.22;5093182;28;19928;-50
2021/08/19 07:38:45;;;;;;;;;;;;;;;17.19;93.41;101279.75;5092564;28;20577;-50
2021/08/19 07:41:12;;;;;;;;;;;;;;;17.23;92.79;101291.78;5090103;28;20287;-49
2021/08/19 07:43:38;;;;;;;;;;;;;;;17.25;93.02;101289.84;5073626;28;19924;-48
2021/08/19 07:46:05;;;;;;;;;;;;;;;17.25;93.09;101276.56;5093012;28;19928;-45
2021/08/19 07:48:32;;;;;;;;;;;;;;;17.25;93.08;101289.84;5075052;28;19924;-45
2021/08/19 07:50:58;;;;;;;;;;;;;;;17.18;93.67;101286.88;5092862;28;19924;-46
2021/08/19 07:53:25;;;;;;;;;;;;;;;17.25;93.81;101289.84;5091789;28;19940;-45
2021/08/19 07:55:52;;;;;;;;;;;;;;;17.28;93.67;101284.25;5072358;28;19924;-44
2021/08/19 07:58:18;;;;;;;;;;;;;;;17.30;93.56;101285.00;5091892;28;19977;-44
2021/08/19 08:00:45;;;;;;;;;;;;;;;17.33;93.16;101291.81;5092667;28;19932;-45
2021/08/19 08:03:12;;;;;;;;;;;;;;;17.37;93.06;101288.78;5089838;28;19931;-59
2021/08/19 08:05:39;;;;;;;;;;;;;;;17.39;93.28;101289.47;5090655;28;19924;-47
2021/08/19 08:08:08;;;;;;;;;;;;;;;17.42;92.68;101288.38;5092801;28;19928;-59
2021/08/19 08:10:37;;;;;;;;;;;;;;;17.47;93.34;101296.78;5092803;28;19924;-59
2021/08/19 08:13:05;;;;;;;;;;;;;;;17.55;92.75;101296.13;5092227;28;20387;-59
2021/08/19 08:15:32;;;;;;;;;;;;;;;17.56;92.13;101295.13;5089874;28;20391;-59
2021/08/19 08:17:59;;;;;;;;;;;;;;;17.57;92.17;101288.84;5088564;28;19924;-59
2021/08/19 08:20:25;;;;;;;;;;;;;;;17.61;91.86;101295.56;5092136;28;20412;-59
2021/08/19 08:22:52;;;;;;;;;;;;;;;17.62;92.41;101293.78;5073593;28;19967;-59
2021/08/19 08:25:19;;;;;;;;;;;;;;;17.61;91.46;101300.91;5089720;28;19928;-59
2021/08/19 08:28:14;;;;;;;;;;;;;;;17.61;91.17;101303.56;5091521;28;19924;-59
2021/08/19 08:30:51;;;;;;;;;;;;;;;17.66;91.21;101298.69;5090206;28;20267;-59
2021/08/19 08:33:19;;;;;;;;;;;;;;;17.76;91.09;101301.38;5057567;28;19924;-59
2021/08/19 08:35:45;;;;;;;;;;;;;;;17.72;90.81;101305.28;5072288;28;20398;-59
2021/08/19 08:38:17;;;;;;;;;;;;;;;17.73;90.58;101296.31;5074120;28;19924;-59
2021/08/19 08:40:46;;;;;;;;;;;;;;;17.76;90.65;101305.84;5093663;28;20393;-59
2021/08/19 08:43:14;;;;;;;;;;;;;;;17.82;90.12;101306.16;5096893;28;20639;-59
2021/08/19 08:45:41;;;;;;;;;;;;;;;17.88;90.14;101307.41;5096667;28;19978;-59
2021/08/19 08:48:12;;;;;;;;;;;;;;;17.95;90.17;101305.09;5096367;28;19959;-59
2021/08/19 08:50:42;;;;;;;;;;;;;;;17.90;90.28;101313.44;5094805;28;19924;-59
2021/08/19 08:53:09;;;;;;;;;;;;;;;17.89;90.19;101303.78;5075116;28;20398;-59
2021/08/19 08:55:36;;;;;;;;;;;;;;;17.93;90.17;101318.53;5096200;28;19960;-59
2021/08/19 08:58:03;;;;;;;;;;;;;;;17.91;89.82;101315.13;5091902;28;20751;-59
2021/08/19 09:00:30;;;;;;;;;;;;;;;17.87;89.64;101317.22;5094270;28;19931;-59
2021/08/19 09:03:10;;;;;;;;;;;;;;;17.87;90.14;101317.22;5080333;28;19931;-59
2021/08/19 09:05:38;;;;;;;;;;;;;;;17.87;90.29;101313.72;5061850;28;19977;-58
2021/08/19 09:08:04;;;;;;;;;;;;;;;17.83;90.73;101325.59;5096325;28;19992;-58
2021/08/19 09:10:32;;;;;;;;;;;;;;;17.83;91.68;101321.16;5095346;28;19925;-57
2021/08/19 09:13:05;;;;;;;;;;;;;;;17.84;91.83;101321.97;5093948;28;19969;-57
2021/08/19 09:15:32;;;;;;;;;;;;;;;17.81;92.23;101317.75;5095507;28;19924;-47
2021/08/19 09:18:00;;;;;;;;;;;;;;;17.77;92.23;101326.16;5096027;28;19924;-56
2021/08/19 09:20:33;;;;;;;;;;;;;;;17.78;92.10;101317.19;5096064;28;19924;-56
2021/08/19 09:23:01;;;;;;;;;;;;;;;17.72;92.36;101322.09;5095959;28;19989;-56
2021/08/19 09:25:27;;;;;;;;;;;;;;;17.73;92.51;101322.91;5077059;28;19928;-55
2021/08/19 09:28:13;;;;;;;;;;;;;;;17.72;93.23;101324.75;5074301;28;19935;-56
2021/08/19 09:30:40;;;;;;;;;;;;;;;17.70;92.50;101331.19;5095621;28;19928;-58
2021/08/19 09:33:07;;;;;;;;;;;;;;;17.58;92.95;101328.59;5078128;28;19928;-58
2021/08/19 09:35:34;;;;;;;;;;;;;;;17.65;92.93;101326.25;5077830;28;19960;-57
2021/08/19 09:38:07;;;;;;;;;;;;;;;17.65;93.51;101328.06;5095843;28;20513;-57
2021/08/19 09:40:34;;;;;;;;;;;;;;;17.65;93.67;101325.41;5094129;28;19927;-55
2021/08/19 09:43:01;;;;;;;;;;;;;;;17.68;94.13;101338.44;5092492;28;19928;-55
2021/08/19 09:45:27;;;;;;;;;;;;;;;17.59;94.15;101332.13;5077326;28;19931;-55
2021/08/19 09:48:05;;;;;;;;;;;;;;;17.62;93.96;101342.47;5094701;28;19924;-48
2021/08/19 09:50:33;;;;;;;;;;;;;;;17.57;94.61;101340.22;5092894;28;19931;-46
2021/08/19 09:53:13;;;;;;;;;;;;;;;17.60;94.07;101343.59;5076093;28;20375;-49
2021/08/19 09:55:39;;;;;;;;;;;;;;;17.64;93.78;101343.19;5077358;28;20387;-46
2021/08/19 09:58:06;;;;;;;;;;;;;;;17.64;93.86;101340.53;5073057;28;19932;-43
2021/08/19 10:00:38;;;;;;;;;;;;;;;17.65;94.46;101336.88;5092227;28;19993;-45
2021/08/19 10:03:06;;;;;;;;;;;;;;;17.66;95.36;101335.91;5075396;28;20018;-48
2021/08/19 10:05:32;;;;;;;;;;;;;;;17.71;94.83;101344.34;5091934;28;19924;-46
2021/08/19 10:07:59;;;;;;;;;;;;;;;17.73;94.23;101333.56;5094347;28;20383;-44
2021/08/19 10:10:26;;;;;;;;;;;;;;;17.84;94.87;101332.63;5095110;28;19942;-43
2021/08/19 10:13:01;;;;;;;;;;;;;;;17.86;94.39;101333.31;5077634;28;19924;-44
2021/08/19 10:15:28;;;;;;;;;;;;;;;17.98;95.17;101331.41;5093580;28;20315;-50
2021/08/19 10:17:55;;;;;;;;;;;;;;;18.03;94.08;101330.03;5090752;28;19935;-45
2021/08/19 10:20:23;;;;;;;;;;;;;;;18.11;95.17;101326.69;5075389;28;20409;-46
2021/08/19 10:22:50;;;;;;;;;;;;;;;18.20;94.02;101322.34;5075788;28;19978;-49
2021/08/19 10:25:18;;;;;;;;;;;;;;;18.28;93.41;101330.47;5073579;28;19924;-45
2021/08/19 10:27:44;;;;;;;;;;;;;;;18.23;93.00;101328.25;5074999;28;19970;-46
2021/08/19 10:30:21;;;;;;;;;;;;;;;18.37;93.43;101328.81;5095180;28;19924;-46
2021/08/19 10:32:52;;;;;;;;;;;;;;;18.44;92.90;101327.28;5094375;28;19924;-45
2021/08/19 10:35:25;;;;;;;;;;;;;;;18.37;91.85;101331.47;5094334;28;19924;-49
2021/08/19 10:37:52;;;;;;;;;;;;;;;18.40;91.03;101334.69;5076587;28;19924;-49
2021/08/19 10:40:36;;;;;;;;;;;;;;;18.39;91.64;101326.84;5057622;28;20455;-49
2021/08/19 10:43:28;;;;;;;;;;;;;;;18.48;89.89;101330.50;5022266;28;19995;-46
2021/08/19 10:46:11;;;;;;;;;;;;;;;18.47;89.78;101328.81;5033214;28;19933;-45
2021/08/19 10:48:46;;;;;;;;;;;;;;;18.52;89.45;101326.59;5013631;28;19931;-49
2021/08/19 10:51:13;;;;;;;;;;;;;;;18.60;89.67;101324.06;5078867;28;20362;-48
2021/08/19 10:53:40;;;;;;;;;;;;;;;18.61;89.29;101331.06;5065560;28;19964;-46
2021/08/19 10:56:07;;;;;;;;;;;;;;;18.50;89.00;101329.41;5085252;28;20398;-45
2021/08/19 10:58:35;;;;;;;;;;;;;;;18.53;89.13;101326.44;5078646;28;20334;-48
2021/08/19 11:01:22;;;;;;;;;;;;;;;18.56;88.19;101322.66;5060327;28;20404;-50
2021/08/19 11:03:49;;;;;;;;;;;;;;;18.58;87.20;101318.88;5063401;28;19924;-50
2021/08/19 11:06:17;;;;;;;;;;;;;;;18.59;87.18;101325.03;5081898;28;20283;-46
2021/08/19 11:08:47;;;;;;;;;;;;;;;18.65;88.33;101320.97;5081057;28;19932;-46
2021/08/19 11:11:34;;;;;;;;;;;;;;;18.63;88.28;101322.94;5082289;28;19925;-46
2021/08/19 11:14:02;;;;;;;;;;;;;;;18.61;87.18;101325.75;5073925;28;19935;-48
2021/08/19 11:16:29;;;;;;;;;;;;;;;18.62;86.89;101319.41;5077036;28;19932;-49
2021/08/19 11:19:09;;;;;;;;;;;;;;;18.61;87.94;101333.75;5080306;28;19925;-50
2021/08/19 11:21:36;;;;;;;;;;;;;;;18.59;87.30;101341.00;5079129;28;19924;-48
2021/08/19 11:24:02;;;;;;;;;;;;;;;18.55;88.08;101342.28;5080687;28;19970;-50
2021/08/19 11:26:29;;;;;;;;;;;;;;;18.52;88.09;101345.22;5063184;28;19924;-50
2021/08/19 11:28:55;;;;;;;;;;;;;;;18.49;86.72;101343.69;5079938;28;20990;-50
2021/08/19 11:31:24;;;;;;;;;;;;;;;18.41;86.98;101344.38;5078731;28;19932;-49
2021/08/19 11:33:58;;;;;;;;;;;;;;;18.47;86.54;101345.63;5079665;28;20359;-51
2021/08/19 11:36:24;;;;;;;;;;;;;;;18.49;86.81;101350.84;5080622;28;19932;-46
2021/08/19 11:38:58;;;;;;;;;;;;;;;18.53;88.10;101355.72;5079909;28;19931;-47
2021/08/19 11:41:25;;;;;;;;;;;;;;;18.61;87.56;101352.38;5084996;28;19924;-48
2021/08/19 11:44:05;;;;;;;;;;;;;;;18.58;87.51;101352.63;5082638;28;19946;-45
2021/08/19 11:46:32;;;;;;;;;;;;;;;18.49;86.65;101357.00;5080633;28;19932;-49
2021/08/19 11:49:10;;;;;;;;;;;;;;;18.52;86.70;101355.88;5084107;28;19924;-50
2021/08/19 11:51:38;;;;;;;;;;;;;;;18.40;87.37;101352.50;5080144;28;20304;-50
2021/08/19 11:54:08;;;;;;;;;;;;;;;18.41;87.57;101356.84;5077385;28;19960;-49
2021/08/19 11:56:39;;;;;;;;;;;;;;;18.34;88.93;101361.88;5063619;28;19970;-44
2021/08/19 11:59:08;;;;;;;;;;;;;;;18.29;88.00;101361.44;5064804;28;19924;-45
2021/08/19 12:01:36;;;;;;;;;;;;;;;18.27;88.99;101366.09;5079163;28;20309;-46
2021/08/19 12:04:04;;;;;;;;;;;;;;;18.35;88.79;101360.91;5077264;28;19947;-46
2021/08/19 12:06:34;;;;;;;;;;;;;;;18.44;89.52;101359.22;5057861;28;19928;-46
2021/08/19 12:09:05;;;;;;;;;;;;;;;18.49;88.93;101366.81;5078079;28;19924;-43
2021/08/19 12:11:39;;;;;;;;;;;;;;;18.60;89.06;101364.00;5081665;28;19928;-49
2021/08/19 12:14:06;;;;;;;;;;;;;;;18.66;87.29;101368.75;5060684;28;20375;-45
2021/08/19 12:16:33;;;;;;;;;;;;;;;18.70;87.01;101369.34;5062615;28;19967;-47
2021/08/19 12:19:19;;;;;;;;;;;;;;;18.83;86.05;101358.38;5062531;28;19932;-49
2021/08/19 12:21:51;;;;;;;;;;;;;;;18.88;85.05;101365.03;5062274;28;20311;-48
2021/08/19 12:24:22;;;;;;;;;;;;;;;18.96;85.16;101366.94;5081092;28;20363;-51
2021/08/19 12:27:00;;;;;;;;;;;;;;;18.94;84.95;101366.28;5082442;28;19924;-51
2021/08/19 12:29:27;;;;;;;;;;;;;;;19.12;84.51;101371.69;5083258;28;19962;-51
2021/08/19 12:31:54;;;;;;;;;;;;;;;19.14;83.74;101367.09;5079581;28;19924;-59
2021/08/19 12:34:20;;;;;;;;;;;;;;;19.14;84.63;101368.91;5061758;28;19931;-60
2021/08/19 12:36:47;;;;;;;;;;;;;;;19.05;83.75;101374.09;5077857;28;19924;-59
2021/08/19 12:39:14;;;;;;;;;;;;;;;19.07;82.25;101369.47;5046122;28;19924;-58
2021/08/19 12:41:41;;;;;;;;;;;;;;;19.07;82.94;101377.47;5081106;28;19931;-60